sensor_id;sensor_type;location;lat;lon;timestamp;P1;durP1;ratioP1;P2;durP2;ratioP2
17259;SDS011;8746;49.230;9.220;2023-07-20T00:02:05;2.47;;;1.80;;
17259;SDS011;8746;49.230;9.220;2023-07-20T00:04:32;2.63;;;2.00;;
17259;SDS011;8746;49.230;9.220;2023-07-20T00:06:57;2.43;;;1.90;;
17259;SDS011;8746;49.230;9.220;2023-07-20T00:09:23;2.57;;;1.63;;
17259;SDS011;8746;49.230;9.220;2023-07-20T00:11:49;2.20;;;1.90;;
17259;SDS011;8746;49.230;9.220;2023-07-20T00:14:16;1.77;;;1.67;;
17259;SDS011;8746;49.230;9.220;2023-07-20T00:16:41;2.47;;;1.60;;
17259;SDS011;8746;49.230;9.220;2023-07-20T00:19:06;2.73;;;2.10;;
17259;SDS011;8746;49.230;9.220;2023-07-20T00:21:33;2.63;;;1.70;;
17259;SDS011;8746;49.230;9.220;2023-07-20T00:23:58;3.43;;;1.70;;
17259;SDS011;8746;49.230;9.220;2023-07-20T00:26:23;2.10;;;1.90;;
17259;SDS011;8746;49.230;9.220;2023-07-20T00:28:49;3.43;;;1.70;;
17259;SDS011;8746;49.230;9.220;2023-07-20T00:31:15;3.73;;;1.70;;
17259;SDS011;8746;49.230;9.220;2023-07-20T00:33:40;2.40;;;1.60;;
17259;SDS011;8746;49.230;9.220;2023-07-20T00:36:06;4.03;;;1.90;;
17259;SDS011;8746;49.230;9.220;2023-07-20T00:38:31;2.13;;;1.87;;
17259;SDS011;8746;49.230;9.220;2023-07-20T00:40:56;3.20;;;1.90;;
17259;SDS011;8746;49.230;9.220;2023-07-20T00:43:22;2.93;;;1.80;;
17259;SDS011;8746;49.230;9.220;2023-07-20T00:45:47;3.53;;;1.97;;
17259;SDS011;8746;49.230;9.220;2023-07-20T00:48:12;2.70;;;1.90;;
17259;SDS011;8746;49.230;9.220;2023-07-20T00:50:39;3.93;;;2.03;;
17259;SDS011;8746;49.230;9.220;2023-07-20T00:53:05;2.80;;;2.00;;
17259;SDS011;8746;49.230;9.220;2023-07-20T00:55:31;4.40;;;1.70;;
17259;SDS011;8746;49.230;9.220;2023-07-20T00:57:57;2.90;;;1.93;;
17259;SDS011;8746;49.230;9.220;2023-07-20T01:00:23;2.07;;;1.83;;
17259;SDS011;8746;49.230;9.220;2023-07-20T01:02:48;1.73;;;1.57;;
17259;SDS011;8746;49.230;9.220;2023-07-20T01:05:13;3.27;;;1.80;;
17259;SDS011;8746;49.230;9.220;2023-07-20T01:07:45;2.30;;;2.10;;
17259;SDS011;8746;49.230;9.220;2023-07-20T01:12:54;3.90;;;1.87;;
17259;SDS011;8746;49.230;9.220;2023-07-20T01:15:20;2.03;;;1.93;;
17259;SDS011;8746;49.230;9.220;2023-07-20T01:17:45;2.23;;;1.97;;
17259;SDS011;8746;49.230;9.220;2023-07-20T01:20:12;2.57;;;2.00;;
17259;SDS011;8746;49.230;9.220;2023-07-20T01:26:02;2.70;;;1.90;;
17259;SDS011;8746;49.230;9.220;2023-07-20T01:31:53;4.53;;;1.90;;
17259;SDS011;8746;49.230;9.220;2023-07-20T01:34:19;2.57;;;2.03;;
17259;SDS011;8746;49.230;9.220;2023-07-20T01:36:48;2.73;;;1.83;;
17259;SDS011;8746;49.230;9.220;2023-07-20T01:39:15;2.13;;;1.90;;
17259;SDS011;8746;49.230;9.220;2023-07-20T01:41:42;2.63;;;1.80;;
17259;SDS011;8746;49.230;9.220;2023-07-20T01:44:08;2.03;;;1.93;;
17259;SDS011;8746;49.230;9.220;2023-07-20T01:46:33;2.10;;;1.90;;
17259;SDS011;8746;49.230;9.220;2023-07-20T01:48:58;4.07;;;2.20;;
17259;SDS011;8746;49.230;9.220;2023-07-20T01:51:24;1.77;;;1.50;;
17259;SDS011;8746;49.230;9.220;2023-07-20T01:53:49;3.43;;;2.20;;
17259;SDS011;8746;49.230;9.220;2023-07-20T01:56:14;2.43;;;1.90;;
17259;SDS011;8746;49.230;9.220;2023-07-20T01:58:40;2.90;;;1.80;;
17259;SDS011;8746;49.230;9.220;2023-07-20T02:01:05;2.20;;;1.90;;
17259;SDS011;8746;49.230;9.220;2023-07-20T02:03:30;2.50;;;1.90;;
17259;SDS011;8746;49.230;9.220;2023-07-20T02:05:56;2.47;;;1.80;;
17259;SDS011;8746;49.230;9.220;2023-07-20T02:08:24;3.00;;;1.90;;
17259;SDS011;8746;49.230;9.220;2023-07-20T02:10:49;3.13;;;2.00;;
17259;SDS011;8746;49.230;9.220;2023-07-20T02:13:14;2.23;;;1.80;;
17259;SDS011;8746;49.230;9.220;2023-07-20T02:15:41;2.00;;;1.80;;
17259;SDS011;8746;49.230;9.220;2023-07-20T02:18:07;4.13;;;1.83;;
17259;SDS011;8746;49.230;9.220;2023-07-20T02:20:33;2.47;;;2.27;;
17259;SDS011;8746;49.230;9.220;2023-07-20T02:22:58;2.23;;;1.80;;
17259;SDS011;8746;49.230;9.220;2023-07-20T02:25:24;2.20;;;2.00;;
17259;SDS011;8746;49.230;9.220;2023-07-20T02:27:49;2.57;;;2.00;;
17259;SDS011;8746;49.230;9.220;2023-07-20T02:30:14;2.50;;;2.10;;
17259;SDS011;8746;49.230;9.220;2023-07-20T02:32:41;2.30;;;2.10;;
17259;SDS011;8746;49.230;9.220;2023-07-20T02:35:10;4.50;;;2.13;;
17259;SDS011;8746;49.230;9.220;2023-07-20T02:37:36;2.37;;;2.00;;
17259;SDS011;8746;49.230;9.220;2023-07-20T02:40:02;2.33;;;2.10;;
17259;SDS011;8746;49.230;9.220;2023-07-20T02:42:29;4.53;;;2.80;;
17259;SDS011;8746;49.230;9.220;2023-07-20T02:44:54;3.63;;;2.37;;
17259;SDS011;8746;49.230;9.220;2023-07-20T02:47:19;3.40;;;2.40;;
17259;SDS011;8746;49.230;9.220;2023-07-20T02:49:45;2.97;;;2.20;;
17259;SDS011;8746;49.230;9.220;2023-07-20T02:52:10;3.13;;;1.87;;
17259;SDS011;8746;49.230;9.220;2023-07-20T02:54:38;2.90;;;2.30;;
17259;SDS011;8746;49.230;9.220;2023-07-20T02:57:04;2.20;;;2.03;;
17259;SDS011;8746;49.230;9.220;2023-07-20T02:59:29;2.90;;;1.97;;
17259;SDS011;8746;49.230;9.220;2023-07-20T03:01:54;2.93;;;2.23;;
17259;SDS011;8746;49.230;9.220;2023-07-20T03:04:20;1.93;;;1.77;;
17259;SDS011;8746;49.230;9.220;2023-07-20T03:06:46;1.90;;;1.80;;
17259;SDS011;8746;49.230;9.220;2023-07-20T03:09:12;2.37;;;1.97;;
17259;SDS011;8746;49.230;9.220;2023-07-20T03:11:37;2.20;;;2.00;;
17259;SDS011;8746;49.230;9.220;2023-07-20T03:14:02;2.40;;;2.20;;
17259;SDS011;8746;49.230;9.220;2023-07-20T03:16:28;3.97;;;2.00;;
17259;SDS011;8746;49.230;9.220;2023-07-20T03:18:53;2.17;;;1.97;;
17259;SDS011;8746;49.230;9.220;2023-07-20T03:21:19;4.23;;;2.00;;
17259;SDS011;8746;49.230;9.220;2023-07-20T03:23:44;2.17;;;1.97;;
17259;SDS011;8746;49.230;9.220;2023-07-20T03:26:09;2.97;;;2.30;;
17259;SDS011;8746;49.230;9.220;2023-07-20T03:28:35;2.40;;;1.90;;
17259;SDS011;8746;49.230;9.220;2023-07-20T03:31:01;3.60;;;1.80;;
17259;SDS011;8746;49.230;9.220;2023-07-20T03:33:27;2.40;;;2.07;;
17259;SDS011;8746;49.230;9.220;2023-07-20T03:35:56;5.33;;;2.10;;
17259;SDS011;8746;49.230;9.220;2023-07-20T03:38:22;3.80;;;2.43;;
17259;SDS011;8746;49.230;9.220;2023-07-20T03:40:51;2.37;;;2.17;;
17259;SDS011;8746;49.230;9.220;2023-07-20T03:43:24;2.90;;;2.20;;
17259;SDS011;8746;49.230;9.220;2023-07-20T03:45:51;4.23;;;2.23;;
17259;SDS011;8746;49.230;9.220;2023-07-20T03:48:20;2.40;;;2.20;;
17259;SDS011;8746;49.230;9.220;2023-07-20T03:50:48;3.13;;;2.47;;
17259;SDS011;8746;49.230;9.220;2023-07-20T03:53:14;2.37;;;2.13;;
17259;SDS011;8746;49.230;9.220;2023-07-20T03:55:41;2.37;;;2.17;;
17259;SDS011;8746;49.230;9.220;2023-07-20T03:58:07;3.70;;;2.33;;
17259;SDS011;8746;49.230;9.220;2023-07-20T04:00:33;2.43;;;2.23;;
17259;SDS011;8746;49.230;9.220;2023-07-20T04:02:59;2.80;;;2.40;;
17259;SDS011;8746;49.230;9.220;2023-07-20T04:05:24;3.40;;;2.20;;
17259;SDS011;8746;49.230;9.220;2023-07-20T04:07:50;3.00;;;2.20;;
17259;SDS011;8746;49.230;9.220;2023-07-20T04:10:16;4.53;;;2.27;;
17259;SDS011;8746;49.230;9.220;2023-07-20T04:12:42;3.90;;;2.07;;
17259;SDS011;8746;49.230;9.220;2023-07-20T04:15:08;3.53;;;2.33;;
17259;SDS011;8746;49.230;9.220;2023-07-20T04:17:34;2.50;;;2.23;;
17259;SDS011;8746;49.230;9.220;2023-07-20T04:19:59;2.23;;;2.03;;
17259;SDS011;8746;49.230;9.220;2023-07-20T04:22:24;5.10;;;2.47;;
17259;SDS011;8746;49.230;9.220;2023-07-20T04:24:50;2.77;;;2.10;;
17259;SDS011;8746;49.230;9.220;2023-07-20T04:27:15;2.87;;;2.10;;
17259;SDS011;8746;49.230;9.220;2023-07-20T04:29:40;2.60;;;2.37;;
17259;SDS011;8746;49.230;9.220;2023-07-20T04:32:06;3.43;;;2.40;;
17259;SDS011;8746;49.230;9.220;2023-07-20T04:34:31;2.53;;;2.30;;
17259;SDS011;8746;49.230;9.220;2023-07-20T04:36:57;3.90;;;2.40;;
17259;SDS011;8746;49.230;9.220;2023-07-20T04:39:22;2.30;;;2.10;;
17259;SDS011;8746;49.230;9.220;2023-07-20T04:41:47;2.33;;;1.90;;
17259;SDS011;8746;49.230;9.220;2023-07-20T04:44:13;3.13;;;2.20;;
17259;SDS011;8746;49.230;9.220;2023-07-20T04:46:39;3.70;;;2.33;;
17259;SDS011;8746;49.230;9.220;2023-07-20T04:49:05;3.00;;;2.23;;
17259;SDS011;8746;49.230;9.220;2023-07-20T04:51:31;2.47;;;2.07;;
17259;SDS011;8746;49.230;9.220;2023-07-20T04:53:56;3.77;;;2.23;;
17259;SDS011;8746;49.230;9.220;2023-07-20T04:56:22;2.80;;;2.10;;
17259;SDS011;8746;49.230;9.220;2023-07-20T04:58:48;2.17;;;1.97;;
17259;SDS011;8746;49.230;9.220;2023-07-20T05:01:13;6.27;;;2.27;;
17259;SDS011;8746;49.230;9.220;2023-07-20T05:03:39;3.67;;;2.23;;
17259;SDS011;8746;49.230;9.220;2023-07-20T05:06:04;2.33;;;1.90;;
17259;SDS011;8746;49.230;9.220;2023-07-20T05:08:29;1.90;;;1.80;;
17259;SDS011;8746;49.230;9.220;2023-07-20T05:10:55;2.67;;;2.10;;
17259;SDS011;8746;49.230;9.220;2023-07-20T05:13:20;3.73;;;1.90;;
17259;SDS011;8746;49.230;9.220;2023-07-20T05:15:45;4.00;;;2.37;;
17259;SDS011;8746;49.230;9.220;2023-07-20T05:18:10;2.87;;;2.23;;
17259;SDS011;8746;49.230;9.220;2023-07-20T05:20:36;4.20;;;2.43;;
17259;SDS011;8746;49.230;9.220;2023-07-20T05:23:02;2.17;;;1.97;;
17259;SDS011;8746;49.230;9.220;2023-07-20T05:25:27;2.80;;;2.20;;
17259;SDS011;8746;49.230;9.220;2023-07-20T05:27:56;2.60;;;2.00;;
17259;SDS011;8746;49.230;9.220;2023-07-20T05:30:22;3.23;;;2.13;;
17259;SDS011;8746;49.230;9.220;2023-07-20T05:32:47;2.60;;;1.80;;
17259;SDS011;8746;49.230;9.220;2023-07-20T05:35:16;2.80;;;2.10;;
17259;SDS011;8746;49.230;9.220;2023-07-20T05:37:42;1.97;;;1.87;;
17259;SDS011;8746;49.230;9.220;2023-07-20T05:40:08;2.20;;;2.03;;
17259;SDS011;8746;49.230;9.220;2023-07-20T05:42:35;2.40;;;2.20;;
17259;SDS011;8746;49.230;9.220;2023-07-20T05:45:00;2.63;;;2.17;;
17259;SDS011;8746;49.230;9.220;2023-07-20T05:47:26;2.57;;;2.10;;
17259;SDS011;8746;49.230;9.220;2023-07-20T05:49:51;3.77;;;2.27;;
17259;SDS011;8746;49.230;9.220;2023-07-20T05:52:16;2.60;;;1.90;;
17259;SDS011;8746;49.230;9.220;2023-07-20T05:54:42;2.10;;;1.67;;
17259;SDS011;8746;49.230;9.220;2023-07-20T05:57:07;4.97;;;1.90;;
17259;SDS011;8746;49.230;9.220;2023-07-20T05:59:32;3.63;;;2.13;;
17259;SDS011;8746;49.230;9.220;2023-07-20T06:01:58;5.47;;;2.23;;
17259;SDS011;8746;49.230;9.220;2023-07-20T06:04:23;3.33;;;1.90;;
17259;SDS011;8746;49.230;9.220;2023-07-20T06:06:49;4.10;;;2.30;;
17259;SDS011;8746;49.230;9.220;2023-07-20T06:09:14;3.73;;;2.60;;
17259;SDS011;8746;49.230;9.220;2023-07-20T06:11:39;3.70;;;2.30;;
17259;SDS011;8746;49.230;9.220;2023-07-20T06:14:05;3.90;;;2.13;;
17259;SDS011;8746;49.230;9.220;2023-07-20T06:16:30;6.60;;;2.20;;
17259;SDS011;8746;49.230;9.220;2023-07-20T06:18:56;4.63;;;2.10;;
17259;SDS011;8746;49.230;9.220;2023-07-20T06:21:21;2.33;;;1.90;;
17259;SDS011;8746;49.230;9.220;2023-07-20T06:23:47;2.00;;;1.80;;
17259;SDS011;8746;49.230;9.220;2023-07-20T06:26:12;1.90;;;1.80;;
17259;SDS011;8746;49.230;9.220;2023-07-20T06:28:37;3.37;;;2.10;;
17259;SDS011;8746;49.230;9.220;2023-07-20T06:31:03;3.23;;;2.17;;
17259;SDS011;8746;49.230;9.220;2023-07-20T06:33:29;3.03;;;2.20;;
17259;SDS011;8746;49.230;9.220;2023-07-20T06:35:54;3.67;;;1.70;;
17259;SDS011;8746;49.230;9.220;2023-07-20T06:38:22;2.33;;;1.87;;
17259;SDS011;8746;49.230;9.220;2023-07-20T06:40:48;4.60;;;1.90;;
17259;SDS011;8746;49.230;9.220;2023-07-20T06:43:14;2.87;;;2.20;;
17259;SDS011;8746;49.230;9.220;2023-07-20T06:45:39;4.83;;;2.30;;
17259;SDS011;8746;49.230;9.220;2023-07-20T06:48:05;3.33;;;2.07;;
17259;SDS011;8746;49.230;9.220;2023-07-20T06:50:31;3.30;;;2.27;;
17259;SDS011;8746;49.230;9.220;2023-07-20T06:52:56;3.10;;;1.83;;
17259;SDS011;8746;49.230;9.220;2023-07-20T06:55:22;2.40;;;2.20;;
17259;SDS011;8746;49.230;9.220;2023-07-20T06:57:47;2.10;;;1.90;;
17259;SDS011;8746;49.230;9.220;2023-07-20T07:00:12;3.60;;;1.80;;
17259;SDS011;8746;49.230;9.220;2023-07-20T07:02:38;2.23;;;1.70;;
17259;SDS011;8746;49.230;9.220;2023-07-20T07:05:04;2.97;;;1.80;;
17259;SDS011;8746;49.230;9.220;2023-07-20T07:07:29;2.25;;;1.60;;
17259;SDS011;8746;49.230;9.220;2023-07-20T07:09:54;3.53;;;1.60;;
17259;SDS011;8746;49.230;9.220;2023-07-20T07:12:20;2.40;;;1.55;;
17259;SDS011;8746;49.230;9.220;2023-07-20T07:14:45;2.80;;;1.45;;
17259;SDS011;8746;49.230;9.220;2023-07-20T07:17:11;2.23;;;1.67;;
17259;SDS011;8746;49.230;9.220;2023-07-20T07:19:36;3.63;;;1.67;;
17259;SDS011;8746;49.230;9.220;2023-07-20T07:22:02;3.20;;;1.60;;
17259;SDS011;8746;49.230;9.220;2023-07-20T07:24:28;3.03;;;1.83;;
17259;SDS011;8746;49.230;9.220;2023-07-20T07:26:58;3.93;;;1.90;;
17259;SDS011;8746;49.230;9.220;2023-07-20T07:29:24;3.63;;;2.10;;
17259;SDS011;8746;49.230;9.220;2023-07-20T07:31:49;5.87;;;2.10;;
17259;SDS011;8746;49.230;9.220;2023-07-20T07:34:14;2.27;;;1.87;;
17259;SDS011;8746;49.230;9.220;2023-07-20T07:36:40;2.28;;;1.77;;
17259;SDS011;8746;49.230;9.220;2023-07-20T07:39:05;3.37;;;1.87;;
17259;SDS011;8746;49.230;9.220;2023-07-20T07:41:30;2.90;;;1.80;;
17259;SDS011;8746;49.230;9.220;2023-07-20T07:43:55;3.05;;;1.70;;
17259;SDS011;8746;49.230;9.220;2023-07-20T07:46:21;1.60;;;1.50;;
17259;SDS011;8746;49.230;9.220;2023-07-20T07:48:46;1.88;;;1.77;;
17259;SDS011;8746;49.230;9.220;2023-07-20T07:51:12;2.05;;;1.60;;
17259;SDS011;8746;49.230;9.220;2023-07-20T07:53:38;3.88;;;2.03;;
17259;SDS011;8746;49.230;9.220;2023-07-20T07:56:04;2.05;;;1.85;;
17259;SDS011;8746;49.230;9.220;2023-07-20T07:58:32;2.08;;;1.98;;
17259;SDS011;8746;49.230;9.220;2023-07-20T08:00:57;2.17;;;1.75;;
17259;SDS011;8746;49.230;9.220;2023-07-20T08:03:22;4.13;;;2.58;;
17259;SDS011;8746;49.230;9.220;2023-07-20T08:05:49;3.67;;;2.20;;
17259;SDS011;8746;49.230;9.220;2023-07-20T08:08:14;4.03;;;2.50;;
17259;SDS011;8746;49.230;9.220;2023-07-20T08:10:39;2.38;;;1.90;;
17259;SDS011;8746;49.230;9.220;2023-07-20T08:13:05;3.78;;;1.67;;
17259;SDS011;8746;49.230;9.220;2023-07-20T08:15:30;2.50;;;2.00;;
17259;SDS011;8746;49.230;9.220;2023-07-20T08:17:56;2.00;;;1.70;;
17259;SDS011;8746;49.230;9.220;2023-07-20T08:20:22;1.95;;;1.70;;
17259;SDS011;8746;49.230;9.220;2023-07-20T08:22:51;3.55;;;1.58;;
17259;SDS011;8746;49.230;9.220;2023-07-20T08:25:20;2.25;;;1.55;;
17259;SDS011;8746;49.230;9.220;2023-07-20T08:27:45;3.10;;;1.70;;
17259;SDS011;8746;49.230;9.220;2023-07-20T08:30:12;2.45;;;1.60;;
17259;SDS011;8746;49.230;9.220;2023-07-20T08:32:38;3.53;;;1.63;;
17259;SDS011;8746;49.230;9.220;2023-07-20T08:35:03;1.63;;;1.52;;
17259;SDS011;8746;49.230;9.220;2023-07-20T08:37:29;2.88;;;1.60;;
17259;SDS011;8746;49.230;9.220;2023-07-20T08:39:54;2.13;;;1.48;;
17259;SDS011;8746;49.230;9.220;2023-07-20T08:42:19;4.57;;;1.80;;
17259;SDS011;8746;49.230;9.220;2023-07-20T08:44:47;3.65;;;1.63;;
17259;SDS011;8746;49.230;9.220;2023-07-20T08:47:14;2.10;;;1.65;;
17259;SDS011;8746;49.230;9.220;2023-07-20T08:49:41;2.17;;;1.25;;
17259;SDS011;8746;49.230;9.220;2023-07-20T08:52:07;3.92;;;1.77;;
17259;SDS011;8746;49.230;9.220;2023-07-20T08:54:33;3.70;;;1.80;;
17259;SDS011;8746;49.230;9.220;2023-07-20T08:57:01;3.42;;;1.55;;
17259;SDS011;8746;49.230;9.220;2023-07-20T08:59:28;1.65;;;1.55;;
17259;SDS011;8746;49.230;9.220;2023-07-20T09:01:55;2.22;;;1.65;;
17259;SDS011;8746;49.230;9.220;2023-07-20T09:04:23;2.38;;;2.08;;
17259;SDS011;8746;49.230;9.220;2023-07-20T09:06:49;1.98;;;1.88;;
17259;SDS011;8746;49.230;9.220;2023-07-20T09:09:15;1.60;;;1.50;;
17259;SDS011;8746;49.230;9.220;2023-07-20T09:11:41;2.63;;;1.73;;
17259;SDS011;8746;49.230;9.220;2023-07-20T09:14:06;3.25;;;1.75;;
17259;SDS011;8746;49.230;9.220;2023-07-20T09:16:46;1.83;;;1.73;;
17259;SDS011;8746;49.230;9.220;2023-07-20T09:19:16;1.95;;;1.75;;
17259;SDS011;8746;49.230;9.220;2023-07-20T09:21:43;1.77;;;1.63;;
17259;SDS011;8746;49.230;9.220;2023-07-20T09:24:10;1.67;;;1.58;;
17259;SDS011;8746;49.230;9.220;2023-07-20T09:26:40;1.50;;;1.40;;
17259;SDS011;8746;49.230;9.220;2023-07-20T09:29:07;2.95;;;1.58;;
17259;SDS011;8746;49.230;9.220;2023-07-20T09:31:34;2.88;;;1.60;;
17259;SDS011;8746;49.230;9.220;2023-07-20T09:33:59;2.97;;;1.60;;
17259;SDS011;8746;49.230;9.220;2023-07-20T09:36:26;1.92;;;1.50;;
17259;SDS011;8746;49.230;9.220;2023-07-20T09:38:52;1.73;;;1.33;;
17259;SDS011;8746;49.230;9.220;2023-07-20T09:41:18;2.28;;;1.45;;
17259;SDS011;8746;49.230;9.220;2023-07-20T09:43:44;1.50;;;1.40;;
17259;SDS011;8746;49.230;9.220;2023-07-20T09:46:10;1.60;;;1.50;;
17259;SDS011;8746;49.230;9.220;2023-07-20T09:48:36;3.53;;;1.50;;
17259;SDS011;8746;49.230;9.220;2023-07-20T09:51:01;2.10;;;1.23;;
17259;SDS011;8746;49.230;9.220;2023-07-20T09:53:27;1.60;;;1.40;;
17259;SDS011;8746;49.230;9.220;2023-07-20T09:55:53;2.45;;;1.30;;
17259;SDS011;8746;49.230;9.220;2023-07-20T09:58:19;1.77;;;1.67;;
17259;SDS011;8746;49.230;9.220;2023-07-20T10:00:45;2.20;;;1.50;;
17259;SDS011;8746;49.230;9.220;2023-07-20T10:03:19;1.50;;;1.40;;
17259;SDS011;8746;49.230;9.220;2023-07-20T10:05:51;1.20;;;1.20;;
17259;SDS011;8746;49.230;9.220;2023-07-20T10:08:20;2.00;;;1.38;;
17259;SDS011;8746;49.230;9.220;2023-07-20T10:10:53;1.92;;;1.50;;
17259;SDS011;8746;49.230;9.220;2023-07-20T10:13:25;2.78;;;1.40;;
17259;SDS011;8746;49.230;9.220;2023-07-20T10:16:07;1.38;;;1.27;;
17259;SDS011;8746;49.230;9.220;2023-07-20T10:21:29;1.73;;;1.30;;
17259;SDS011;8746;49.230;9.220;2023-07-20T10:23:57;1.42;;;1.33;;
17259;SDS011;8746;49.230;9.220;2023-07-20T10:26:24;2.03;;;1.23;;
17259;SDS011;8746;49.230;9.220;2023-07-20T10:28:51;2.28;;;1.40;;
17259;SDS011;8746;49.230;9.220;2023-07-20T10:31:17;1.73;;;1.50;;
17259;SDS011;8746;49.230;9.220;2023-07-20T10:33:42;1.83;;;1.30;;
17259;SDS011;8746;49.230;9.220;2023-07-20T10:36:09;1.25;;;1.15;;
17259;SDS011;8746;49.230;9.220;2023-07-20T10:38:40;1.50;;;1.20;;
17259;SDS011;8746;49.230;9.220;2023-07-20T10:43:51;1.75;;;1.17;;
17259;SDS011;8746;49.230;9.220;2023-07-20T10:46:41;2.22;;;1.10;;
17259;SDS011;8746;49.230;9.220;2023-07-20T10:49:12;1.73;;;1.50;;
17259;SDS011;8746;49.230;9.220;2023-07-20T10:56:41;1.38;;;1.25;;
17259;SDS011;8746;49.230;9.220;2023-07-20T10:59:17;1.77;;;1.35;;
17259;SDS011;8746;49.230;9.220;2023-07-20T11:01:44;3.00;;;1.60;;
17259;SDS011;8746;49.230;9.220;2023-07-20T11:04:12;3.15;;;1.35;;
17259;SDS011;8746;49.230;9.220;2023-07-20T11:06:37;2.53;;;1.20;;
17259;SDS011;8746;49.230;9.220;2023-07-20T11:09:10;1.70;;;1.40;;
17259;SDS011;8746;49.230;9.220;2023-07-20T11:11:44;1.83;;;1.40;;
17259;SDS011;8746;49.230;9.220;2023-07-20T11:14:21;1.40;;;1.30;;
17259;SDS011;8746;49.230;9.220;2023-07-20T11:16:48;1.30;;;1.20;;
17259;SDS011;8746;49.230;9.220;2023-07-20T11:21:43;3.15;;;1.40;;
17259;SDS011;8746;49.230;9.220;2023-07-20T11:24:10;2.88;;;1.35;;
17259;SDS011;8746;49.230;9.220;2023-07-20T11:26:45;3.75;;;1.60;;
17259;SDS011;8746;49.230;9.220;2023-07-20T11:29:12;1.33;;;1.17;;
17259;SDS011;8746;49.230;9.220;2023-07-20T11:31:39;2.05;;;1.20;;
17259;SDS011;8746;49.230;9.220;2023-07-20T11:34:05;1.70;;;1.33;;
17259;SDS011;8746;49.230;9.220;2023-07-20T11:36:33;1.50;;;1.30;;
17259;SDS011;8746;49.230;9.220;2023-07-20T11:38:58;1.50;;;1.10;;
17259;SDS011;8746;49.230;9.220;2023-07-20T11:41:25;1.40;;;1.30;;
17259;SDS011;8746;49.230;9.220;2023-07-20T11:43:53;1.60;;;1.45;;
17259;SDS011;8746;49.230;9.220;2023-07-20T11:46:19;1.60;;;1.20;;
17259;SDS011;8746;49.230;9.220;2023-07-20T11:48:45;3.00;;;1.30;;
17259;SDS011;8746;49.230;9.220;2023-07-20T11:51:13;2.40;;;1.10;;
17259;SDS011;8746;49.230;9.220;2023-07-20T11:53:40;1.23;;;1.13;;
17259;SDS011;8746;49.230;9.220;2023-07-20T11:56:06;1.20;;;1.10;;
17259;SDS011;8746;49.230;9.220;2023-07-20T11:58:31;1.40;;;1.20;;
17259;SDS011;8746;49.230;9.220;2023-07-20T12:00:57;1.52;;;1.35;;
17259;SDS011;8746;49.230;9.220;2023-07-20T12:03:22;1.10;;;1.10;;
17259;SDS011;8746;49.230;9.220;2023-07-20T12:05:47;1.90;;;1.20;;
17259;SDS011;8746;49.230;9.220;2023-07-20T12:08:15;1.40;;;1.30;;
17259;SDS011;8746;49.230;9.220;2023-07-20T12:10:41;1.40;;;1.30;;
17259;SDS011;8746;49.230;9.220;2023-07-20T12:13:09;1.10;;;1.00;;
17259;SDS011;8746;49.230;9.220;2023-07-20T12:15:36;1.30;;;1.20;;
17259;SDS011;8746;49.230;9.220;2023-07-20T12:18:02;1.90;;;1.52;;
17259;SDS011;8746;49.230;9.220;2023-07-20T12:20:29;1.92;;;1.25;;
17259;SDS011;8746;49.230;9.220;2023-07-20T12:23:00;1.38;;;1.27;;
17259;SDS011;8746;49.230;9.220;2023-07-20T12:25:34;1.48;;;1.30;;
17259;SDS011;8746;49.230;9.220;2023-07-20T12:28:10;2.58;;;1.33;;
17259;SDS011;8746;49.230;9.220;2023-07-20T12:30:37;1.80;;;1.30;;
17259;SDS011;8746;49.230;9.220;2023-07-20T12:33:03;2.55;;;1.40;;
17259;SDS011;8746;49.230;9.220;2023-07-20T12:35:29;1.33;;;1.23;;
17259;SDS011;8746;49.230;9.220;2023-07-20T12:37:56;1.50;;;1.33;;
17259;SDS011;8746;49.230;9.220;2023-07-20T12:40:22;1.60;;;1.30;;
17259;SDS011;8746;49.230;9.220;2023-07-20T12:42:47;2.30;;;1.20;;
17259;SDS011;8746;49.230;9.220;2023-07-20T12:45:13;1.58;;;1.25;;
17259;SDS011;8746;49.230;9.220;2023-07-20T12:47:39;1.45;;;1.20;;
17259;SDS011;8746;49.230;9.220;2023-07-20T12:50:05;1.30;;;1.20;;
17259;SDS011;8746;49.230;9.220;2023-07-20T12:52:31;2.15;;;1.30;;
17259;SDS011;8746;49.230;9.220;2023-07-20T12:54:57;1.50;;;1.40;;
17259;SDS011;8746;49.230;9.220;2023-07-20T12:57:23;3.25;;;1.08;;
17259;SDS011;8746;49.230;9.220;2023-07-20T12:59:49;2.22;;;1.20;;
17259;SDS011;8746;49.230;9.220;2023-07-20T13:02:14;1.92;;;1.30;;
17259;SDS011;8746;49.230;9.220;2023-07-20T13:04:39;1.75;;;1.35;;
17259;SDS011;8746;49.230;9.220;2023-07-20T13:07:05;1.35;;;1.25;;
17259;SDS011;8746;49.230;9.220;2023-07-20T13:09:33;1.10;;;0.98;;
17259;SDS011;8746;49.230;9.220;2023-07-20T13:11:58;1.33;;;1.25;;
17259;SDS011;8746;49.230;9.220;2023-07-20T13:14:23;1.33;;;1.20;;
17259;SDS011;8746;49.230;9.220;2023-07-20T13:16:49;1.95;;;1.38;;
17259;SDS011;8746;49.230;9.220;2023-07-20T13:19:14;1.70;;;1.25;;
17259;SDS011;8746;49.230;9.220;2023-07-20T13:21:39;1.20;;;1.10;;
17259;SDS011;8746;49.230;9.220;2023-07-20T13:24:05;1.23;;;1.13;;
17259;SDS011;8746;49.230;9.220;2023-07-20T13:26:30;1.60;;;1.17;;
17259;SDS011;8746;49.230;9.220;2023-07-20T13:28:56;2.50;;;1.40;;
17259;SDS011;8746;49.230;9.220;2023-07-20T13:31:22;1.38;;;1.27;;
17259;SDS011;8746;49.230;9.220;2023-07-20T13:33:47;2.05;;;1.27;;
17259;SDS011;8746;49.230;9.220;2023-07-20T13:36:12;1.42;;;1.05;;
17259;SDS011;8746;49.230;9.220;2023-07-20T13:38:38;1.98;;;1.13;;
17259;SDS011;8746;49.230;9.220;2023-07-20T13:41:03;1.30;;;1.10;;
17259;SDS011;8746;49.230;9.220;2023-07-20T13:43:28;1.42;;;1.33;;
17259;SDS011;8746;49.230;9.220;2023-07-20T13:45:54;1.30;;;1.20;;
17259;SDS011;8746;49.230;9.220;2023-07-20T13:48:19;1.40;;;1.30;;
17259;SDS011;8746;49.230;9.220;2023-07-20T13:50:48;1.35;;;1.25;;
17259;SDS011;8746;49.230;9.220;2023-07-20T13:53:13;1.50;;;1.23;;
17259;SDS011;8746;49.230;9.220;2023-07-20T13:55:39;2.28;;;1.50;;
17259;SDS011;8746;49.230;9.220;2023-07-20T13:58:04;2.35;;;1.40;;
17259;SDS011;8746;49.230;9.220;2023-07-20T14:00:30;2.90;;;1.13;;
17259;SDS011;8746;49.230;9.220;2023-07-20T14:02:58;1.83;;;1.35;;
17259;SDS011;8746;49.230;9.220;2023-07-20T14:05:24;1.30;;;1.20;;
17259;SDS011;8746;49.230;9.220;2023-07-20T14:07:49;1.23;;;1.10;;
17259;SDS011;8746;49.230;9.220;2023-07-20T14:10:15;1.33;;;1.23;;
17259;SDS011;8746;49.230;9.220;2023-07-20T14:12:40;1.30;;;1.20;;
17259;SDS011;8746;49.230;9.220;2023-07-20T14:15:05;1.92;;;1.05;;
17259;SDS011;8746;49.230;9.220;2023-07-20T14:17:31;1.48;;;1.25;;
17259;SDS011;8746;49.230;9.220;2023-07-20T14:19:56;1.52;;;1.20;;
17259;SDS011;8746;49.230;9.220;2023-07-20T14:22:22;1.25;;;1.15;;
17259;SDS011;8746;49.230;9.220;2023-07-20T14:24:48;1.50;;;1.40;;
17259;SDS011;8746;49.230;9.220;2023-07-20T14:27:13;1.40;;;1.30;;
17259;SDS011;8746;49.230;9.220;2023-07-20T14:29:38;2.50;;;1.30;;
17259;SDS011;8746;49.230;9.220;2023-07-20T14:32:04;1.20;;;1.10;;
17259;SDS011;8746;49.230;9.220;2023-07-20T14:34:31;1.13;;;0.95;;
17259;SDS011;8746;49.230;9.220;2023-07-20T14:36:58;1.20;;;1.10;;
17259;SDS011;8746;49.230;9.220;2023-07-20T14:39:24;1.40;;;1.00;;
17259;SDS011;8746;49.230;9.220;2023-07-20T14:41:49;1.27;;;1.17;;
17259;SDS011;8746;49.230;9.220;2023-07-20T14:44:16;1.40;;;1.30;;
17259;SDS011;8746;49.230;9.220;2023-07-20T14:46:41;1.50;;;1.40;;
17259;SDS011;8746;49.230;9.220;2023-07-20T14:49:06;1.40;;;1.30;;
17259;SDS011;8746;49.230;9.220;2023-07-20T14:51:32;1.30;;;1.20;;
17259;SDS011;8746;49.230;9.220;2023-07-20T14:53:58;2.25;;;1.05;;
17259;SDS011;8746;49.230;9.220;2023-07-20T14:56:24;1.42;;;1.33;;
17259;SDS011;8746;49.230;9.220;2023-07-20T14:58:50;2.95;;;1.27;;
17259;SDS011;8746;49.230;9.220;2023-07-20T15:01:15;1.60;;;1.33;;
17259;SDS011;8746;49.230;9.220;2023-07-20T15:03:40;1.30;;;1.20;;
17259;SDS011;8746;49.230;9.220;2023-07-20T15:06:10;2.33;;;1.20;;
17259;SDS011;8746;49.230;9.220;2023-07-20T15:08:36;1.25;;;1.10;;
17259;SDS011;8746;49.230;9.220;2023-07-20T15:11:01;2.35;;;1.35;;
17259;SDS011;8746;49.230;9.220;2023-07-20T15:13:27;1.30;;;1.20;;
17259;SDS011;8746;49.230;9.220;2023-07-20T15:15:52;1.63;;;1.40;;
17259;SDS011;8746;49.230;9.220;2023-07-20T15:18:17;1.30;;;1.20;;